createdAt,value
2018-05-26T00:00:00.582Z,3.57
2018-05-26T00:02:26.894Z,2.70
2018-05-26T00:04:53.920Z,4.87
2018-05-26T00:07:20.212Z,3.40
2018-05-26T00:09:46.527Z,4.70
2018-05-26T00:12:12.832Z,4.90
2018-05-26T00:14:39.884Z,5.37
2018-05-26T00:17:06.924Z,5.37
2018-05-26T00:19:33.222Z,5.30
2018-05-26T00:21:59.517Z,3.87
2018-05-26T00:24:25.826Z,4.53
2018-05-26T00:26:52.891Z,5.70
2018-05-26T00:29:19.189Z,4.10
2018-05-26T00:31:45.508Z,4.70
2018-05-26T00:34:11.801Z,5.53
2018-05-26T00:36:38.124Z,4.23
2018-05-26T00:39:04.417Z,4.83
2018-05-26T00:41:30.738Z,5.57
2018-05-26T00:43:57.026Z,4.83
2018-05-26T00:46:23.340Z,4.03
2018-05-26T00:48:49.660Z,3.27
2018-05-26T00:51:16.708Z,4.27
2018-05-26T00:53:43.760Z,4.50
2018-05-26T00:56:10.084Z,5.17
2018-05-26T00:58:37.139Z,6.90
2018-05-26T01:01:04.209Z,7.03
2018-05-26T01:03:30.501Z,7.80
2018-05-26T01:05:56.829Z,8.00
2018-05-26T01:08:23.880Z,6.83
2018-05-26T01:10:50.168Z,5.47
2018-05-26T01:13:16.465Z,7.13
2018-05-26T01:15:43.494Z,9.57
2018-05-26T01:18:10.528Z,9.20
2018-05-26T01:20:36.857Z,8.60
2018-05-26T01:23:03.153Z,10.13
2018-05-26T01:25:29.441Z,10.87
2018-05-26T01:27:56.493Z,10.77
2018-05-26T01:30:23.524Z,17.50
2018-05-26T01:32:49.825Z,12.23
2018-05-26T01:35:16.111Z,16.23
2018-05-26T01:37:43.196Z,13.23
2018-05-26T01:40:09.484Z,9.50
2018-05-26T01:42:35.755Z,7.53
2018-05-26T01:45:02.075Z,6.70
2018-05-26T01:47:28.368Z,12.20
2018-05-26T01:49:54.697Z,13.80
2018-05-26T01:52:20.993Z,10.87
2018-05-26T01:54:47.320Z,12.53
2018-05-26T01:59:51.821Z,15.33
2018-05-26T02:02:18.842Z,11.10
2018-05-26T02:04:45.185Z,13.30
2018-05-26T02:07:11.465Z,11.67
2018-05-26T02:09:41.709Z,17.03
2018-05-26T02:12:07.994Z,12.93
2018-05-26T02:14:35.038Z,21.37
2018-05-26T02:17:02.085Z,18.70
2018-05-26T02:19:29.138Z,27.00
2018-05-26T02:21:56.168Z,31.20
2018-05-26T02:24:22.481Z,30.37
2018-05-26T02:26:48.771Z,28.80
2018-05-26T02:29:15.089Z,20.47
2018-05-26T02:31:41.390Z,26.43
2018-05-26T02:34:07.761Z,27.13
2018-05-26T02:36:34.064Z,24.90
2018-05-26T02:39:00.377Z,18.20
2018-05-26T02:41:26.680Z,21.60
2018-05-26T02:43:53.011Z,18.90
2018-05-26T02:46:19.640Z,18.63
2018-05-26T02:48:45.928Z,16.53
2018-05-26T02:51:12.221Z,13.27
2018-05-26T02:53:38.539Z,11.07
2018-05-26T02:56:04.989Z,27.30
2018-05-26T02:58:31.321Z,16.63
2018-05-26T03:00:57.728Z,18.00
2018-05-26T03:03:24.013Z,23.40
2018-05-26T03:05:56.504Z,16.20
2018-05-26T03:08:29.635Z,14.63
2018-05-26T03:11:02.071Z,16.97
2018-05-26T03:13:35.164Z,11.03
2018-05-26T03:19:04.752Z,13.13
2018-05-26T03:21:31.506Z,13.67
2018-05-26T03:23:57.812Z,13.73
2018-05-26T03:26:24.097Z,25.03
2018-05-26T03:28:51.147Z,19.67
2018-05-26T03:31:18.200Z,13.77
2018-05-26T03:33:45.224Z,17.73
2018-05-26T03:36:12.993Z,19.47
2018-05-26T03:38:39.297Z,23.67
2018-05-26T03:41:05.587Z,21.77
2018-05-26T03:43:31.934Z,19.10
2018-05-26T03:45:58.291Z,12.67
2018-05-26T03:48:24.768Z,19.80
2018-05-26T03:50:51.076Z,15.63
2018-05-26T03:53:17.386Z,13.30
2018-05-26T03:55:55.905Z,13.20
2018-05-26T03:58:34.648Z,17.07
2018-05-26T04:01:01.692Z,13.67
2018-05-26T04:03:28.001Z,18.83
2018-05-26T04:05:54.355Z,18.23
2018-05-26T04:08:20.664Z,23.33
2018-05-26T04:10:46.953Z,15.07
2018-05-26T04:13:14.012Z,19.33
2018-05-26T04:15:40.336Z,12.00
2018-05-26T04:18:06.678Z,15.10
2018-05-26T04:20:33.014Z,18.80
2018-05-26T04:22:59.332Z,20.40
2018-05-26T04:25:26.360Z,18.80
2018-05-26T04:27:53.393Z,21.67
2018-05-26T04:30:19.718Z,20.80
2018-05-26T04:32:48.072Z,23.27
2018-05-26T04:35:14.340Z,21.23
2018-05-26T04:37:40.677Z,20.50
2018-05-26T04:40:06.962Z,25.70
2018-05-26T04:42:33.244Z,18.80
2018-05-26T04:45:00.351Z,22.03
2018-05-26T04:47:26.640Z,21.77
2018-05-26T04:49:52.929Z,19.70
2018-05-26T04:52:19.237Z,19.00
2018-05-26T04:54:45.516Z,21.70
2018-05-26T04:57:12.580Z,21.23
2018-05-26T04:59:38.904Z,19.60
2018-05-26T05:02:05.928Z,18.83
2018-05-26T05:04:32.226Z,18.57
2018-05-26T05:06:58.572Z,18.07
2018-05-26T05:09:24.891Z,14.93
2018-05-26T05:11:51.210Z,14.03
2018-05-26T05:14:17.533Z,17.60
2018-05-26T05:16:43.852Z,14.47
2018-05-26T05:19:10.136Z,10.60
2018-05-26T05:21:36.449Z,8.03
2018-05-26T05:24:04.308Z,8.57
2018-05-26T05:26:30.613Z,11.47
2018-05-26T05:28:56.971Z,10.73
2018-05-26T05:31:23.283Z,15.23
2018-05-26T05:33:49.580Z,12.60
2018-05-26T05:36:17.382Z,11.47
2018-05-26T05:38:43.741Z,11.30
2018-05-26T05:41:10.057Z,13.23
2018-05-26T05:43:37.405Z,10.87
2018-05-26T05:46:03.710Z,11.47
2018-05-26T05:48:31.790Z,11.33
2018-05-26T05:50:58.845Z,10.30
2018-05-26T05:53:25.197Z,10.57
2018-05-26T05:55:51.524Z,9.60
2018-05-26T05:58:17.860Z,9.33
2018-05-26T06:00:44.168Z,10.17
2018-05-26T06:03:11.245Z,9.23
2018-05-26T06:05:37.605Z,9.03
2018-05-26T06:08:04.061Z,9.37
2018-05-26T06:10:31.156Z,9.20
2018-05-26T06:12:57.471Z,8.33
2018-05-26T06:15:24.533Z,7.20
2018-05-26T06:17:50.849Z,6.60
2018-05-26T06:20:17.924Z,7.43
2018-05-26T06:22:44.239Z,7.57
2018-05-26T06:25:10.557Z,6.90
2018-05-26T06:27:37.607Z,8.80
2018-05-26T06:30:03.904Z,6.50
2018-05-26T06:32:30.979Z,6.27
2018-05-26T06:34:58.021Z,5.90
2018-05-26T06:37:24.340Z,7.30
2018-05-26T06:39:50.636Z,6.43
2018-05-26T06:42:16.941Z,8.07
2018-05-26T06:44:43.979Z,6.93
2018-05-26T06:47:12.306Z,8.60
2018-05-26T06:49:38.625Z,6.60
2018-05-26T06:52:04.981Z,6.50
2018-05-26T06:54:31.288Z,6.20
2018-05-26T06:56:57.607Z,7.10
2018-05-26T06:59:23.941Z,7.87
2018-05-26T07:01:55.221Z,6.93
2018-05-26T07:04:21.546Z,6.77
2018-05-26T07:06:47.861Z,6.20
2018-05-26T07:09:14.228Z,7.03
2018-05-26T07:11:40.857Z,6.80
2018-05-26T07:14:07.170Z,6.37
2018-05-26T07:16:33.590Z,6.63
2018-05-26T07:19:01.454Z,7.10
2018-05-26T07:21:28.861Z,6.97
2018-05-26T07:23:55.175Z,5.80
2018-05-26T07:26:21.495Z,5.50
2018-05-26T07:28:47.834Z,5.27
2018-05-26T07:31:14.164Z,4.37
2018-05-26T07:33:40.497Z,4.87
2018-05-26T07:36:06.815Z,4.47
2018-05-26T07:38:33.140Z,4.00
2018-05-26T07:40:59.440Z,3.30
2018-05-26T07:43:26.517Z,3.10
2018-05-26T07:45:53.092Z,2.73
2018-05-26T07:48:19.370Z,3.47
2018-05-26T07:50:45.697Z,3.50
2018-05-26T07:53:12.024Z,2.93
2018-05-26T07:55:38.373Z,3.50
2018-05-26T07:58:05.420Z,3.50
2018-05-26T08:00:31.716Z,3.37
2018-05-26T08:02:58.005Z,3.23
2018-05-26T08:05:24.283Z,4.37
2018-05-26T08:07:50.592Z,3.80
2018-05-26T08:10:16.924Z,5.03
2018-05-26T08:12:43.220Z,3.53
2018-05-26T08:15:09.556Z,3.60
2018-05-26T08:17:35.844Z,4.13
2018-05-26T08:20:02.935Z,4.07
2018-05-26T08:22:29.225Z,6.33
2018-05-26T08:24:55.525Z,5.40
2018-05-26T08:27:21.906Z,5.43
2018-05-26T08:29:48.192Z,4.53
2018-05-26T08:32:14.482Z,5.00
2018-05-26T08:34:40.790Z,4.93
2018-05-26T08:37:07.835Z,5.10
2018-05-26T08:39:34.868Z,5.93
2018-05-26T08:42:01.191Z,4.73
2018-05-26T08:44:28.982Z,6.97
2018-05-26T08:46:56.024Z,4.83
2018-05-26T08:49:23.085Z,4.50
2018-05-26T08:51:54.006Z,3.73
2018-05-26T08:54:20.340Z,4.93
2018-05-26T08:56:47.405Z,4.40
2018-05-26T08:59:14.462Z,3.40
2018-05-26T09:01:41.482Z,4.07
2018-05-26T09:04:07.844Z,4.77
2018-05-26T09:06:34.860Z,4.17
2018-05-26T09:09:01.984Z,5.60
2018-05-26T09:11:28.383Z,5.97
2018-05-26T09:13:54.689Z,3.90
2018-05-26T09:16:25.673Z,4.40
2018-05-26T09:18:52.031Z,4.13
2018-05-26T09:21:18.305Z,4.10
2018-05-26T09:23:44.616Z,3.23
2018-05-26T09:26:17.656Z,3.77
2018-05-26T09:29:05.791Z,3.20
2018-05-26T09:31:41.293Z,3.37
2018-05-26T09:34:10.560Z,5.25
2018-05-26T09:36:42.783Z,4.45
2018-05-26T09:39:09.849Z,4.90
2018-05-26T09:41:36.129Z,4.27
2018-05-26T09:44:02.460Z,4.95
2018-05-26T09:46:28.749Z,5.03
2018-05-26T09:48:55.250Z,5.03
2018-05-26T09:51:22.288Z,4.35
2018-05-26T09:53:48.604Z,5.45
2018-05-26T09:56:15.987Z,5.47
2018-05-26T09:58:43.048Z,4.93
2018-05-26T10:01:13.121Z,4.00
2018-05-26T10:03:44.424Z,4.53
2018-05-26T10:06:24.159Z,4.15
2018-05-26T10:08:51.188Z,3.67
2018-05-26T10:11:17.569Z,3.80
2018-05-26T10:13:43.998Z,4.53
2018-05-26T10:16:11.369Z,3.50
2018-05-26T10:18:37.672Z,4.40
2018-05-26T10:21:04.024Z,4.22
2018-05-26T10:23:30.374Z,4.40
2018-05-26T10:25:56.805Z,4.37
2018-05-26T10:28:39.476Z,3.67
2018-05-26T10:31:05.883Z,4.45
2018-05-26T10:33:34.021Z,3.90
2018-05-26T10:36:00.361Z,3.72
2018-05-26T10:38:26.712Z,4.00
2018-05-26T10:40:53.206Z,2.87
2018-05-26T10:43:19.540Z,3.40
2018-05-26T10:45:58.248Z,2.97
2018-05-26T10:48:24.622Z,3.17
2018-05-26T10:50:50.991Z,2.75
2018-05-26T10:53:18.117Z,3.30
2018-05-26T10:55:44.477Z,4.70
2018-05-26T10:58:11.613Z,3.63
2018-05-26T11:00:37.956Z,5.77
2018-05-26T11:03:05.055Z,4.60
2018-05-26T11:05:31.569Z,6.28
2018-05-26T11:07:57.869Z,5.28
2018-05-26T11:10:24.188Z,5.03
2018-05-26T11:12:52.306Z,5.40
2018-05-26T11:15:18.660Z,4.90
2018-05-26T11:17:45.924Z,5.32
2018-05-26T11:20:12.201Z,4.07
2018-05-26T11:22:38.627Z,5.32
2018-05-26T11:25:05.693Z,4.18
2018-05-26T11:27:32.088Z,4.45
2018-05-26T11:29:58.437Z,6.78
2018-05-26T11:32:25.558Z,5.18
2018-05-26T11:34:52.011Z,6.28
2018-05-26T11:37:18.411Z,5.12
2018-05-26T11:39:44.819Z,4.10
2018-05-26T11:42:11.385Z,4.68
2018-05-26T11:44:37.817Z,4.50
2018-05-26T11:47:04.239Z,5.20
2018-05-26T11:49:32.635Z,5.03
2018-05-26T11:51:59.028Z,4.60
2018-05-26T11:54:25.370Z,3.90
2018-05-26T11:56:51.801Z,5.25
2018-05-26T11:59:18.099Z,6.12
2018-05-26T12:01:45.259Z,5.25
2018-05-26T12:04:11.616Z,4.30
2018-05-26T12:06:38.048Z,4.05
2018-05-26T12:09:04.583Z,4.13
2018-05-26T12:11:30.903Z,4.20
2018-05-26T12:13:57.185Z,4.47
2018-05-26T12:16:24.245Z,4.87
2018-05-26T12:18:50.521Z,4.18
2018-05-26T12:21:16.957Z,3.95
2018-05-26T12:23:47.218Z,3.90
2018-05-26T12:26:13.668Z,4.68
2018-05-26T12:28:40.029Z,3.55
2018-05-26T12:31:06.393Z,4.53
2018-05-26T12:33:32.741Z,3.67
2018-05-26T12:35:59.087Z,3.83
2018-05-26T12:38:26.156Z,3.95
2018-05-26T12:40:53.253Z,4.03
2018-05-26T12:43:19.665Z,4.68
2018-05-26T12:45:45.950Z,5.93
2018-05-26T12:48:28.516Z,4.80
2018-05-26T12:50:54.878Z,4.62
2018-05-26T12:53:21.238Z,4.70
2018-05-26T12:55:48.296Z,6.00
2018-05-26T12:58:14.765Z,5.15
2018-05-26T13:00:41.105Z,3.92
2018-05-26T13:03:07.497Z,4.82
2018-05-26T13:05:33.893Z,5.10
2018-05-26T13:08:00.312Z,4.35
2018-05-26T13:10:27.530Z,4.72
2018-05-26T13:12:53.876Z,4.50
2018-05-26T13:15:20.396Z,4.97
2018-05-26T13:17:46.857Z,5.47
2018-05-26T13:20:13.320Z,5.70
2018-05-26T13:22:39.695Z,4.87
2018-05-26T13:25:06.856Z,5.60
2018-05-26T13:27:35.301Z,5.15
2018-05-26T13:30:02.502Z,4.07
2018-05-26T13:32:28.828Z,4.12
2018-05-26T13:34:55.161Z,4.10
2018-05-26T13:37:21.501Z,4.10
2018-05-26T13:39:47.818Z,4.80
2018-05-26T13:42:14.178Z,5.00
2018-05-26T13:44:40.934Z,4.85
2018-05-26T13:47:07.269Z,4.47
2018-05-26T13:49:34.365Z,4.03
2018-05-26T13:52:01.539Z,4.60
2018-05-26T13:54:27.905Z,4.47
2018-05-26T13:56:54.239Z,3.90
2018-05-26T13:59:21.298Z,5.03
2018-05-26T14:01:47.650Z,4.30
2018-05-26T14:04:13.958Z,3.62
2018-05-26T14:06:42.243Z,3.70
2018-05-26T14:09:08.699Z,3.20
2018-05-26T14:11:35.009Z,3.47
2018-05-26T14:14:01.381Z,3.12
2018-05-26T14:16:28.562Z,3.53
2018-05-26T14:18:55.679Z,3.80
2018-05-26T14:21:22.804Z,4.50
2018-05-26T14:23:49.141Z,3.50
2018-05-26T14:26:19.360Z,3.33
2018-05-26T14:28:45.660Z,2.70
2018-05-26T14:31:12.754Z,2.92
2018-05-26T14:33:39.107Z,2.87
2018-05-26T14:36:05.448Z,3.03
2018-05-26T14:38:32.540Z,2.60
2018-05-26T14:40:58.895Z,2.40
2018-05-26T14:43:25.253Z,2.58
2018-05-26T14:45:53.097Z,2.72
2018-05-26T14:48:20.250Z,2.87
2018-05-26T14:50:46.596Z,2.55
2018-05-26T14:53:13.657Z,2.25
2018-05-26T14:55:40.952Z,2.35
2018-05-26T14:58:07.278Z,2.58
2018-05-26T15:00:33.621Z,2.70
2018-05-26T15:02:59.949Z,3.03
2018-05-26T15:05:26.424Z,2.28
2018-05-26T15:07:52.741Z,2.70
2018-05-26T15:10:19.819Z,2.33
2018-05-26T15:12:46.268Z,2.00
2018-05-26T15:15:12.616Z,2.22
2018-05-26T15:17:38.997Z,2.10
2018-05-26T15:20:05.330Z,2.40
2018-05-26T15:22:31.750Z,2.53
2018-05-26T15:24:58.125Z,2.03
2018-05-26T15:27:24.506Z,2.70
2018-05-26T15:29:50.880Z,2.60
2018-05-26T15:32:17.355Z,2.20
2018-05-26T15:34:43.924Z,2.50
2018-05-26T15:37:10.290Z,2.87
2018-05-26T15:39:36.801Z,2.37
2018-05-26T15:42:03.654Z,2.47
2018-05-26T15:44:30.009Z,1.70
2018-05-26T15:46:56.419Z,1.77
2018-05-26T15:49:23.482Z,1.97
2018-05-26T15:51:50.506Z,3.03
2018-05-26T15:54:16.809Z,2.43
2018-05-26T15:56:43.136Z,1.80
2018-05-26T15:59:09.429Z,2.33
2018-05-26T16:01:38.517Z,2.35
2018-05-26T16:04:05.593Z,1.97
2018-05-26T16:06:31.913Z,2.00
2018-05-26T16:08:58.241Z,1.90
2018-05-26T16:11:45.264Z,1.83
2018-05-26T16:14:11.624Z,2.23
2018-05-26T16:16:37.944Z,1.87
2018-05-26T16:19:04.216Z,2.10
2018-05-26T16:21:30.598Z,2.23
2018-05-26T16:23:56.912Z,2.47
2018-05-26T16:26:23.208Z,2.53
2018-05-26T16:28:49.517Z,1.90
2018-05-26T16:31:15.832Z,1.87
2018-05-26T16:33:43.173Z,2.30
2018-05-26T16:36:09.543Z,2.43
2018-05-26T16:38:53.472Z,1.90
2018-05-26T16:41:19.792Z,2.07
2018-05-26T16:43:47.136Z,3.10
2018-05-26T16:46:13.424Z,2.40
2018-05-26T16:48:40.506Z,2.20
2018-05-26T16:51:18.973Z,2.40
2018-05-26T16:53:45.281Z,1.90
2018-05-26T16:56:11.600Z,2.30
2018-05-26T16:58:37.909Z,2.17
2018-05-26T17:01:04.258Z,2.50
2018-05-26T17:03:30.649Z,2.90
2018-05-26T17:05:57.684Z,2.10
2018-05-26T17:08:24.023Z,2.30
2018-05-26T17:10:50.369Z,2.10
2018-05-26T17:13:17.413Z,2.97
2018-05-26T17:15:58.780Z,2.57
2018-05-26T17:18:27.073Z,2.37
2018-05-26T17:20:54.137Z,2.57
2018-05-26T17:23:21.196Z,2.30
2018-05-26T17:25:47.512Z,1.90
2018-05-26T17:28:14.546Z,2.37
2018-05-26T17:30:41.645Z,2.10
2018-05-26T17:33:19.826Z,2.73
2018-05-26T17:35:46.173Z,2.80
2018-05-26T17:38:12.462Z,2.50
2018-05-26T17:40:39.521Z,2.40
2018-05-26T17:43:06.810Z,2.40
2018-05-26T17:45:33.117Z,1.90
2018-05-26T17:48:00.150Z,2.40
2018-05-26T17:50:27.235Z,2.50
2018-05-26T17:52:53.541Z,1.93
2018-05-26T17:55:20.599Z,2.00
2018-05-26T17:57:48.640Z,1.97
2018-05-26T18:00:14.980Z,2.27
2018-05-26T18:02:42.032Z,2.67
2018-05-26T18:05:09.112Z,2.40
2018-05-26T18:07:35.444Z,1.90
2018-05-26T18:10:01.826Z,2.00
2018-05-26T18:12:28.142Z,1.67
2018-05-26T18:14:54.465Z,2.23
2018-05-26T18:17:20.779Z,2.50
2018-05-26T18:19:47.102Z,2.47
2018-05-26T18:22:13.400Z,2.60
2018-05-26T18:24:39.863Z,3.00
2018-05-26T18:27:06.176Z,2.27
2018-05-26T18:29:33.285Z,2.10
2018-05-26T18:31:59.617Z,1.60
2018-05-26T18:34:25.983Z,2.20
2018-05-26T18:36:53.028Z,2.50
2018-05-26T18:39:20.095Z,1.83
2018-05-26T18:41:46.423Z,1.90
2018-05-26T18:44:13.449Z,1.77
2018-05-26T18:46:39.745Z,1.70
2018-05-26T18:49:06.124Z,2.00
2018-05-26T18:51:36.456Z,2.17
2018-05-26T18:54:03.476Z,2.27
2018-05-26T18:56:29.788Z,2.87
2018-05-26T18:58:56.144Z,2.53
2018-05-26T19:01:22.489Z,2.00
2018-05-26T19:03:49.560Z,1.90
2018-05-26T19:06:15.908Z,2.43
2018-05-26T19:08:42.219Z,1.90
2018-05-26T19:11:08.544Z,2.60
2018-05-26T19:13:35.593Z,2.37
2018-05-26T19:16:01.964Z,2.30
2018-05-26T19:18:28.316Z,2.40
2018-05-26T19:20:54.638Z,2.17
2018-05-26T19:23:20.961Z,2.07
2018-05-26T19:25:47.268Z,1.87
2018-05-26T19:28:13.557Z,2.23
2018-05-26T19:30:39.893Z,2.00
2018-05-26T19:33:06.947Z,2.40
2018-05-26T19:35:33.286Z,2.10
2018-05-26T19:38:00.377Z,2.97
2018-05-26T19:40:26.713Z,2.27
2018-05-26T19:42:53.057Z,2.83
2018-05-26T19:45:19.389Z,2.50
2018-05-26T19:47:45.741Z,2.77
2018-05-26T19:50:12.085Z,2.13
2018-05-26T19:52:38.389Z,2.40
2018-05-26T19:55:04.804Z,2.20
2018-05-26T19:57:31.103Z,1.90
2018-05-26T19:59:57.439Z,1.80
2018-05-26T20:02:24.481Z,1.67
2018-05-26T20:04:51.662Z,2.53
2018-05-26T20:07:17.970Z,2.67
2018-05-26T20:09:44.339Z,2.30
2018-05-26T20:12:10.649Z,2.70
2018-05-26T20:14:36.957Z,2.47
2018-05-26T20:17:04.052Z,3.00
2018-05-26T20:19:30.348Z,2.80
2018-05-26T20:21:57.403Z,2.00
2018-05-26T20:24:23.728Z,2.33
2018-05-26T20:26:50.041Z,2.90
2018-05-26T20:29:17.108Z,2.50
2018-05-26T20:31:43.447Z,2.57
2018-05-26T20:34:09.766Z,3.10
2018-05-26T20:36:36.801Z,2.60
2018-05-26T20:39:03.879Z,2.60
2018-05-26T20:41:30.194Z,2.97
2018-05-26T20:43:57.236Z,2.10
2018-05-26T20:46:24.291Z,2.93
2018-05-26T20:48:51.352Z,3.10
2018-05-26T20:51:17.680Z,3.60
2018-05-26T20:53:44.010Z,2.80
2018-05-26T20:56:11.082Z,3.87
2018-05-26T20:58:37.405Z,3.13
2018-05-26T21:01:03.810Z,2.70
2018-05-26T21:03:30.925Z,2.07
2018-05-26T21:05:58.024Z,2.90
2018-05-26T21:08:25.113Z,4.23
2018-05-26T21:10:51.457Z,3.13
2018-05-26T21:13:17.794Z,2.97
2018-05-26T21:15:44.133Z,2.87
2018-05-26T21:18:11.208Z,3.70
2018-05-26T21:20:38.241Z,2.80
2018-05-26T21:23:04.576Z,2.13
2018-05-26T21:25:31.609Z,2.53
2018-05-26T21:27:57.942Z,2.73
2018-05-26T21:30:24.245Z,2.90
2018-05-26T21:32:50.556Z,2.60
2018-05-26T21:35:16.898Z,2.27
2018-05-26T21:37:43.244Z,2.40
2018-05-26T21:40:09.536Z,2.57
2018-05-26T21:42:36.568Z,3.70
2018-05-26T21:45:03.656Z,3.17
2018-05-26T21:47:29.976Z,2.33
2018-05-26T21:49:57.021Z,2.93
2018-05-26T21:52:23.332Z,1.97
2018-05-26T21:54:50.392Z,2.30
2018-05-26T21:57:16.773Z,2.13
2018-05-26T21:59:43.090Z,2.20
2018-05-26T22:02:09.413Z,2.40
2018-05-26T22:04:35.742Z,2.00
2018-05-26T22:07:05.896Z,2.23
2018-05-26T22:09:32.275Z,2.20
2018-05-26T22:11:59.499Z,2.00
2018-05-26T22:14:26.227Z,2.40
2018-05-26T22:16:52.535Z,2.10
2018-05-26T22:19:18.982Z,2.07
2018-05-26T22:21:45.336Z,3.20
2018-05-26T22:24:11.661Z,2.10
2018-05-26T22:26:39.464Z,1.97
2018-05-26T22:29:06.523Z,2.20
2018-05-26T22:31:33.017Z,2.13
2018-05-26T22:33:59.345Z,2.07
2018-05-26T22:36:29.518Z,2.07
2018-05-26T22:38:55.857Z,1.97
2018-05-26T22:41:22.175Z,1.63
2018-05-26T22:43:49.512Z,2.07
2018-05-26T22:46:16.595Z,2.40
2018-05-26T22:48:42.965Z,3.70
2018-05-26T22:51:09.269Z,3.10
2018-05-26T22:53:35.661Z,2.47
2018-05-26T22:56:01.993Z,1.87
2018-05-26T22:58:32.934Z,2.10
2018-05-26T23:00:59.983Z,2.23
2018-05-26T23:03:26.331Z,2.17
2018-05-26T23:05:53.210Z,3.67
2018-05-26T23:08:19.489Z,2.50
2018-05-26T23:10:46.541Z,2.40
2018-05-26T23:13:14.233Z,5.10
2018-05-26T23:15:40.588Z,2.93
2018-05-26T23:18:06.920Z,1.87
2018-05-26T23:20:33.238Z,1.90
2018-05-26T23:22:59.561Z,1.70
2018-05-26T23:25:26.681Z,1.73
2018-05-26T23:27:53.757Z,1.53
2018-05-26T23:30:20.198Z,1.57
2018-05-26T23:32:46.580Z,2.27
2018-05-26T23:35:12.910Z,2.20
2018-05-26T23:37:40.712Z,2.60
2018-05-26T23:40:06.997Z,2.20
2018-05-26T23:42:33.301Z,1.57
2018-05-26T23:44:59.619Z,2.03
2018-05-26T23:47:25.940Z,2.30
2018-05-26T23:49:52.228Z,3.63
2018-05-26T23:52:18.529Z,4.40
2018-05-26T23:54:44.846Z,3.80
2018-05-26T23:57:11.157Z,2.70
2018-05-26T23:59:38.221Z,3.80
